Time;durP1;ratioP1;P1;durP2;ratioP2;P2;SDS_P1;SDS_P2;PMS_P1;PMS_P2;Temp;Humidity;BMP_temperature;BMP_pressure;BME280_temperature;BME280_humidity;BME280_pressure;Samples;Min_cycle;Max_cycle;Signal;HPM_P1;HPM_P2
2022/10/10 00:01:28;;;;;;;4.80;2.33;;;;;;;;;;5075545;28;20298;-76
2022/10/10 00:03:56;;;;;;;5.90;2.20;;;;;;;;;;5074241;28;20313;-76
2022/10/10 00:06:25;;;;;;;3.50;2.20;;;;;;;;;;5075321;28;20234;-76
2022/10/10 00:09:00;;;;;;;2.30;2.10;;;;;;;;;;5075058;28;20655;-76
2022/10/10 00:11:28;;;;;;;3.60;2.23;;;;;;;;;;5074539;28;20338;-76
2022/10/10 00:13:58;;;;;;;2.40;2.20;;;;;;;;;;5074652;28;20226;-76
2022/10/10 00:16:27;;;;;;;2.30;2.10;;;;;;;;;;5075614;28;20297;-76
2022/10/10 00:18:55;;;;;;;2.80;2.03;;;;;;;;;;5092902;28;20249;-76
2022/10/10 00:21:24;;;;;;;4.07;2.00;;;;;;;;;;5095230;28;20645;-76
2022/10/10 00:23:53;;;;;;;2.97;2.20;;;;;;;;;;5094856;28;20257;-76
2022/10/10 00:26:21;;;;;;;2.20;2.00;;;;;;;;;;5093592;28;20744;-77
2022/10/10 00:28:49;;;;;;;2.23;2.03;;;;;;;;;;5074704;28;20244;-76
2022/10/10 00:31:19;;;;;;;3.03;2.23;;;;;;;;;;5074368;28;20263;-76
2022/10/10 00:33:48;;;;;;;2.47;2.10;;;;;;;;;;5095068;28;20273;-76
2022/10/10 00:36:19;;;;;;;5.03;2.40;;;;;;;;;;5094743;28;20198;-76
2022/10/10 00:38:48;;;;;;;5.33;2.70;;;;;;;;;;5095094;28;20693;-76
2022/10/10 00:41:16;;;;;;;5.83;2.20;;;;;;;;;;5094228;28;20666;-76
2022/10/10 00:43:59;;;;;;;5.73;2.40;;;;;;;;;;5094612;28;20249;-76
2022/10/10 00:46:29;;;;;;;4.50;2.30;;;;;;;;;;5090059;28;20252;-76
2022/10/10 00:48:58;;;;;;;3.73;2.60;;;;;;;;;;5074351;28;20711;-76
2022/10/10 00:51:26;;;;;;;5.87;2.43;;;;;;;;;;5074865;28;20217;-76
2022/10/10 00:53:57;;;;;;;5.10;2.20;;;;;;;;;;5074186;28;20227;-76
2022/10/10 00:56:28;;;;;;;3.30;2.10;;;;;;;;;;5087153;28;20198;-76
2022/10/10 00:58:58;;;;;;;4.33;2.73;;;;;;;;;;5084442;28;20236;-76
2022/10/10 01:01:27;;;;;;;5.47;2.03;;;;;;;;;;5074376;28;20222;-76
2022/10/10 01:03:59;;;;;;;3.53;2.50;;;;;;;;;;5094788;28;20267;-76
2022/10/10 01:06:28;;;;;;;3.30;2.40;;;;;;;;;;5084161;28;20226;-76
2022/10/10 01:08:57;;;;;;;2.93;2.13;;;;;;;;;;5074171;28;20286;-76
2022/10/10 01:11:34;;;;;;;2.73;2.20;;;;;;;;;;5074409;28;20294;-76
2022/10/10 01:14:07;;;;;;;2.60;2.10;;;;;;;;;;5074500;28;20262;-76
2022/10/10 01:16:41;;;;;;;7.27;2.17;;;;;;;;;;5075395;28;20217;-76
2022/10/10 01:19:21;;;;;;;3.80;2.00;;;;;;;;;;5074764;28;20267;-76
2022/10/10 01:21:57;;;;;;;2.60;2.00;;;;;;;;;;5074264;28;20731;-76
2022/10/10 01:24:42;;;;;;;3.17;2.00;;;;;;;;;;5079222;28;20260;-76
2022/10/10 01:27:28;;;;;;;7.50;2.20;;;;;;;;;;5080093;28;20321;-76
2022/10/10 01:30:02;;;;;;;4.73;2.27;;;;;;;;;;5079476;28;20198;-76
2022/10/10 01:32:33;;;;;;;3.57;2.03;;;;;;;;;;5080044;28;20246;-76
2022/10/10 01:35:20;;;;;;;4.80;2.20;;;;;;;;;;5079694;28;20695;-76
2022/10/10 01:37:53;;;;;;;6.33;2.20;;;;;;;;;;5075382;28;20206;-76
2022/10/10 01:40:25;;;;;;;2.93;2.00;;;;;;;;;;5100195;28;20240;-76
2022/10/10 01:42:55;;;;;;;4.70;2.10;;;;;;;;;;5099657;28;20229;-76
2022/10/10 01:45:25;;;;;;;2.50;1.90;;;;;;;;;;5099472;28;20245;-76
2022/10/10 01:47:54;;;;;;;3.50;2.17;;;;;;;;;;5085934;28;20292;-76
2022/10/10 01:50:24;;;;;;;3.70;1.93;;;;;;;;;;5078806;28;20234;-76
2022/10/10 01:52:55;;;;;;;4.53;2.07;;;;;;;;;;5091380;28;20289;-76
2022/10/10 01:55:29;;;;;;;4.37;2.13;;;;;;;;;;5099712;28;20253;-76
2022/10/10 01:58:08;;;;;;;3.57;2.00;;;;;;;;;;5099100;28;20241;-76
2022/10/10 02:00:43;;;;;;;3.53;2.00;;;;;;;;;;5095595;28;20237;-76
2022/10/10 02:03:14;;;;;;;5.33;2.07;;;;;;;;;;5078959;28;20279;-76
2022/10/10 02:05:46;;;;;;;3.83;2.00;;;;;;;;;;5088166;28;20241;-76
2022/10/10 02:08:15;;;;;;;3.27;2.00;;;;;;;;;;5099424;28;20631;-76
2022/10/10 02:10:45;;;;;;;2.93;1.80;;;;;;;;;;5099478;28;20202;-76
2022/10/10 02:13:14;;;;;;;2.77;1.83;;;;;;;;;;5098753;28;20228;-76
2022/10/10 02:15:46;;;;;;;3.87;2.30;;;;;;;;;;5096701;28;20289;-76
2022/10/10 02:18:17;;;;;;;4.00;2.33;;;;;;;;;;5085436;28;20211;-76
2022/10/10 02:20:45;;;;;;;3.27;2.40;;;;;;;;;;5079334;28;20252;-76
2022/10/10 02:23:16;;;;;;;2.90;2.23;;;;;;;;;;5078565;28;20219;-76
2022/10/10 02:25:47;;;;;;;5.90;2.23;;;;;;;;;;5078177;28;20265;-76
2022/10/10 02:28:18;;;;;;;4.27;2.10;;;;;;;;;;5078379;28;20638;-76
2022/10/10 02:30:50;;;;;;;3.97;2.40;;;;;;;;;;5089034;28;20642;-76
2022/10/10 02:33:20;;;;;;;3.60;2.40;;;;;;;;;;5098077;28;20222;-76
2022/10/10 02:35:49;;;;;;;2.67;2.20;;;;;;;;;;5097682;28;20301;-76
2022/10/10 02:38:18;;;;;;;1.90;1.80;;;;;;;;;;5097831;28;20726;-76
2022/10/10 02:40:47;;;;;;;4.23;2.40;;;;;;;;;;5098012;28;20237;-76
2022/10/10 02:43:16;;;;;;;4.60;2.23;;;;;;;;;;5098809;28;20264;-76
2022/10/10 02:45:45;;;;;;;2.97;1.90;;;;;;;;;;5094880;28;20243;-76
2022/10/10 02:48:15;;;;;;;2.33;2.07;;;;;;;;;;5094381;28;20213;-76
2022/10/10 02:50:43;;;;;;;3.43;2.10;;;;;;;;;;5098614;28;20198;-76
2022/10/10 02:53:12;;;;;;;3.17;2.27;;;;;;;;;;5098805;28;20722;-76
2022/10/10 02:55:40;;;;;;;3.33;2.00;;;;;;;;;;5097776;28;20206;-76
2022/10/10 02:58:09;;;;;;;3.70;2.10;;;;;;;;;;5098481;28;20694;-76
2022/10/10 03:00:37;;;;;;;2.53;2.10;;;;;;;;;;5082417;28;20229;-76
2022/10/10 03:03:06;;;;;;;3.03;2.20;;;;;;;;;;5090914;28;20201;-76
2022/10/10 03:05:36;;;;;;;3.20;2.00;;;;;;;;;;5097702;28;20205;-76
2022/10/10 03:08:04;;;;;;;2.87;2.00;;;;;;;;;;5098124;28;20206;-76
2022/10/10 03:10:38;;;;;;;3.17;2.20;;;;;;;;;;5098373;28;20206;-76
2022/10/10 03:13:07;;;;;;;2.53;2.30;;;;;;;;;;5097300;28;20241;-76
2022/10/10 03:15:35;;;;;;;3.63;2.47;;;;;;;;;;5077645;28;20627;-76
2022/10/10 03:18:05;;;;;;;3.03;2.53;;;;;;;;;;5079297;28;20202;-76
2022/10/10 03:20:33;;;;;;;4.33;2.60;;;;;;;;;;5097911;28;20612;-76
2022/10/10 03:23:03;;;;;;;3.97;2.90;;;;;;;;;;5098578;28;20237;-76
2022/10/10 03:25:33;;;;;;;4.20;2.73;;;;;;;;;;5098751;28;20221;-76
2022/10/10 03:28:02;;;;;;;5.10;2.90;;;;;;;;;;5094238;28;20214;-76
2022/10/10 03:30:30;;;;;;;6.07;3.10;;;;;;;;;;5082058;28;20238;-76
2022/10/10 03:32:59;;;;;;;3.50;2.57;;;;;;;;;;5093691;28;20296;-76
2022/10/10 03:35:27;;;;;;;4.17;2.50;;;;;;;;;;5094089;28;20629;-76
2022/10/10 03:37:56;;;;;;;3.87;2.57;;;;;;;;;;5079678;28;20199;-76
2022/10/10 03:40:26;;;;;;;3.37;2.47;;;;;;;;;;5076583;28;20632;-76
2022/10/10 03:42:55;;;;;;;3.63;2.50;;;;;;;;;;5097974;28;20241;-76
2022/10/10 03:45:24;;;;;;;3.60;2.63;;;;;;;;;;5096569;28;20252;-76
2022/10/10 03:47:52;;;;;;;5.07;2.77;;;;;;;;;;5084384;28;20316;-76
2022/10/10 03:50:21;;;;;;;4.50;2.67;;;;;;;;;;5093622;28;20209;-76
2022/10/10 03:52:49;;;;;;;3.70;2.30;;;;;;;;;;5096932;28;20217;-76
2022/10/10 03:55:18;;;;;;;3.90;2.50;;;;;;;;;;5082375;28;20580;-77
2022/10/10 03:57:48;;;;;;;3.67;2.27;;;;;;;;;;5079059;28;20202;-76
2022/10/10 04:00:17;;;;;;;4.23;2.27;;;;;;;;;;5079384;28;20248;-76
2022/10/10 04:02:45;;;;;;;3.63;2.20;;;;;;;;;;5084925;28;20225;-76
2022/10/10 04:05:13;;;;;;;4.10;2.37;;;;;;;;;;5099271;28;20246;-76
2022/10/10 04:07:42;;;;;;;3.53;2.20;;;;;;;;;;5079085;28;20749;-76
2022/10/10 04:10:11;;;;;;;3.50;2.20;;;;;;;;;;5078676;28;20206;-76
2022/10/10 04:12:39;;;;;;;4.70;2.40;;;;;;;;;;5079310;28;20256;-76
2022/10/10 04:15:10;;;;;;;5.17;2.30;;;;;;;;;;5079490;28;20218;-76
2022/10/10 04:17:38;;;;;;;3.53;2.37;;;;;;;;;;5079046;28;20213;-76
2022/10/10 04:20:07;;;;;;;4.40;2.30;;;;;;;;;;5086812;28;20275;-77
2022/10/10 04:22:35;;;;;;;3.53;2.07;;;;;;;;;;5099548;28;20206;-76
2022/10/10 04:25:04;;;;;;;3.47;2.17;;;;;;;;;;5099124;28;20221;-77
2022/10/10 04:27:33;;;;;;;3.03;2.10;;;;;;;;;;5085192;28;20245;-77
2022/10/10 04:30:01;;;;;;;3.90;2.40;;;;;;;;;;5080136;28;20577;-76
2022/10/10 04:32:31;;;;;;;4.97;2.20;;;;;;;;;;5079506;28;20206;-76
2022/10/10 04:35:00;;;;;;;4.07;2.10;;;;;;;;;;5078232;28;20253;-77
2022/10/10 04:37:28;;;;;;;5.53;2.10;;;;;;;;;;5079610;28;20245;-76
2022/10/10 04:39:57;;;;;;;3.10;2.20;;;;;;;;;;5078968;28;20675;-76
2022/10/10 04:42:25;;;;;;;3.57;2.20;;;;;;;;;;5078677;28;20202;-76
2022/10/10 04:44:54;;;;;;;2.73;2.20;;;;;;;;;;5080598;28;20283;-76
2022/10/10 04:47:22;;;;;;;2.63;2.00;;;;;;;;;;5086636;28;20274;-77
2022/10/10 04:49:52;;;;;;;4.53;2.30;;;;;;;;;;5098746;28;20241;-76
2022/10/10 04:52:21;;;;;;;2.80;2.10;;;;;;;;;;5099309;28;20209;-76
2022/10/10 04:54:49;;;;;;;5.17;2.40;;;;;;;;;;5097514;28;20326;-77
2022/10/10 04:57:18;;;;;;;3.50;2.40;;;;;;;;;;5096274;28;20198;-76
2022/10/10 04:59:46;;;;;;;3.10;2.30;;;;;;;;;;5083286;28;20631;-77
2022/10/10 05:02:15;;;;;;;2.63;2.13;;;;;;;;;;5085085;28;20600;-76
2022/10/10 05:04:43;;;;;;;4.00;2.33;;;;;;;;;;5096821;28;20590;-77
2022/10/10 05:07:13;;;;;;;4.60;2.50;;;;;;;;;;5097466;28;20257;-77
2022/10/10 05:09:42;;;;;;;3.40;2.50;;;;;;;;;;5079573;28;20242;-77
2022/10/10 05:12:10;;;;;;;3.77;2.53;;;;;;;;;;5085270;28;20593;-76
2022/10/10 05:14:39;;;;;;;4.27;2.40;;;;;;;;;;5099005;28;20312;-76
2022/10/10 05:17:13;;;;;;;2.60;2.40;;;;;;;;;;5092091;28;20209;-76
2022/10/10 05:19:41;;;;;;;3.90;2.60;;;;;;;;;;5079181;28;20291;-76
2022/10/10 05:22:10;;;;;;;3.00;2.40;;;;;;;;;;5083447;28;20231;-77
2022/10/10 05:24:40;;;;;;;3.17;2.30;;;;;;;;;;5099798;28;20620;-77
2022/10/10 05:27:08;;;;;;;2.40;2.20;;;;;;;;;;5099214;28;20233;-77
2022/10/10 05:29:37;;;;;;;3.67;2.47;;;;;;;;;;5098257;28;20229;-76
2022/10/10 05:32:05;;;;;;;4.60;2.90;;;;;;;;;;5099230;28;20205;-76
2022/10/10 05:34:38;;;;;;;3.60;2.57;;;;;;;;;;5099087;28;20757;-77
2022/10/10 05:37:06;;;;;;;4.93;2.50;;;;;;;;;;5087871;28;20213;-76
2022/10/10 05:39:35;;;;;;;7.87;2.87;;;;;;;;;;5098832;28;20241;-76
2022/10/10 05:42:05;;;;;;;6.43;2.80;;;;;;;;;;5098920;28;20215;-76
2022/10/10 05:44:33;;;;;;;4.30;2.63;;;;;;;;;;5099399;28;20263;-76
2022/10/10 05:47:03;;;;;;;4.40;3.03;;;;;;;;;;5093122;28;20219;-76
2022/10/10 05:49:31;;;;;;;4.30;2.60;;;;;;;;;;5082081;28;20615;-76
2022/10/10 05:52:00;;;;;;;5.20;2.80;;;;;;;;;;5098071;28;20293;-76
2022/10/10 05:54:28;;;;;;;4.00;2.80;;;;;;;;;;5098463;28;20709;-76
2022/10/10 05:56:57;;;;;;;6.70;2.40;;;;;;;;;;5099303;28;20202;-76
2022/10/10 05:59:28;;;;;;;3.47;2.67;;;;;;;;;;5099042;28;20245;-76
2022/10/10 06:01:57;;;;;;;3.87;2.93;;;;;;;;;;5098784;28;20229;-76
2022/10/10 06:04:25;;;;;;;3.80;2.63;;;;;;;;;;5084274;28;20223;-76
2022/10/10 06:06:54;;;;;;;4.77;3.23;;;;;;;;;;5078177;28;20202;-77
2022/10/10 06:09:22;;;;;;;3.20;2.60;;;;;;;;;;5081276;28;20246;-76
2022/10/10 06:11:51;;;;;;;7.63;2.90;;;;;;;;;;5089478;28;20206;-77
2022/10/10 06:14:19;;;;;;;3.60;2.60;;;;;;;;;;5103328;28;20277;-76
2022/10/10 06:16:49;;;;;;;4.13;2.80;;;;;;;;;;5098777;28;20228;-77
2022/10/10 06:19:18;;;;;;;2.90;2.60;;;;;;;;;;5082960;28;20201;-76
2022/10/10 06:21:47;;;;;;;4.87;2.93;;;;;;;;;;5082312;28;20301;-76
2022/10/10 06:24:15;;;;;;;3.20;2.83;;;;;;;;;;5082147;28;20272;-76
2022/10/10 06:26:44;;;;;;;3.63;3.07;;;;;;;;;;5089983;28;20217;-76
2022/10/10 06:29:13;;;;;;;3.50;2.57;;;;;;;;;;5087962;28;20687;-76
2022/10/10 06:31:41;;;;;;;4.33;2.87;;;;;;;;;;5088843;28;20224;-76
2022/10/10 06:34:11;;;;;;;2.93;2.63;;;;;;;;;;5099387;28;20230;-76
2022/10/10 06:36:40;;;;;;;4.23;2.73;;;;;;;;;;5080915;28;20221;-76
2022/10/10 06:39:08;;;;;;;3.97;2.80;;;;;;;;;;5081660;28;20225;-77
2022/10/10 06:41:37;;;;;;;4.27;2.70;;;;;;;;;;5081223;28;20270;-76
2022/10/10 06:44:06;;;;;;;4.53;2.90;;;;;;;;;;5080851;28;20272;-76
2022/10/10 06:46:36;;;;;;;4.40;3.00;;;;;;;;;;5081331;28;20237;-77
2022/10/10 06:49:04;;;;;;;4.93;3.00;;;;;;;;;;5081137;28;20236;-76
2022/10/10 06:51:34;;;;;;;4.60;3.10;;;;;;;;;;5082023;28;20260;-76
2022/10/10 06:54:03;;;;;;;2.80;2.60;;;;;;;;;;5081169;28;20262;-76
2022/10/10 06:56:31;;;;;;;4.37;2.67;;;;;;;;;;5078857;28;20232;-76
2022/10/10 06:59:00;;;;;;;4.43;2.50;;;;;;;;;;5080440;28;20206;-76
2022/10/10 07:01:29;;;;;;;4.10;2.30;;;;;;;;;;5081034;28;20232;-77
2022/10/10 07:03:57;;;;;;;4.27;2.70;;;;;;;;;;5100291;28;20253;-76
2022/10/10 07:06:26;;;;;;;2.70;2.13;;;;;;;;;;5098982;28;20199;-76
2022/10/10 07:09:01;;;;;;;6.67;2.30;;;;;;;;;;5099892;28;20283;-76
2022/10/10 07:11:29;;;;;;;4.03;2.53;;;;;;;;;;5098361;28;20295;-76
2022/10/10 07:13:58;;;;;;;4.23;2.40;;;;;;;;;;5097810;28;20260;-76
2022/10/10 07:16:26;;;;;;;3.67;2.50;;;;;;;;;;5094131;28;20289;-76
2022/10/10 07:18:55;;;;;;;2.77;2.30;;;;;;;;;;5076552;28;20216;-76
2022/10/10 07:21:23;;;;;;;3.17;2.40;;;;;;;;;;5076214;28;20637;-76
2022/10/10 07:23:52;;;;;;;4.07;2.37;;;;;;;;;;5076474;28;20227;-76
2022/10/10 07:26:25;;;;;;;3.67;2.10;;;;;;;;;;5076597;28;20210;-77
2022/10/10 07:28:54;;;;;;;3.50;2.43;;;;;;;;;;5394521;22;20298;-81
2022/10/10 07:31:24;;;;;;;3.87;2.40;;;;;;;;;;5060530;28;20259;-82
2022/10/10 07:33:53;;;;;;;5.07;2.40;;;;;;;;;;5063684;28;20186;-81
2022/10/10 07:36:21;;;;;;;4.50;2.10;;;;;;;;;;5060304;28;20223;-82
2022/10/10 07:38:51;;;;;;;4.23;2.10;;;;;;;;;;5061660;28;20223;-81
2022/10/10 07:41:22;;;;;;;4.70;2.40;;;;;;;;;;5063007;28;20229;-81
2022/10/10 07:43:54;;;;;;;2.70;2.37;;;;;;;;;;5060857;28;20203;-81
2022/10/10 07:46:23;;;;;;;3.03;2.17;;;;;;;;;;5062294;28;20191;-81
2022/10/10 07:48:52;;;;;;;3.80;2.30;;;;;;;;;;5059969;28;20250;-81
2022/10/10 07:51:20;;;;;;;2.93;2.20;;;;;;;;;;5062918;28;20209;-81
2022/10/10 07:53:49;;;;;;;3.20;2.23;;;;;;;;;;5059245;28;20199;-81
2022/10/10 07:56:17;;;;;;;4.93;2.63;;;;;;;;;;5060837;28;20253;-81
2022/10/10 07:58:47;;;;;;;4.43;2.30;;;;;;;;;;5060975;28;20223;-81
2022/10/10 08:01:16;;;;;;;3.03;2.33;;;;;;;;;;5063389;28;20203;-82
2022/10/10 08:03:45;;;;;;;4.20;2.40;;;;;;;;;;5059419;28;20667;-81
2022/10/10 08:06:14;;;;;;;2.60;2.07;;;;;;;;;;5059611;28;20213;-81
2022/10/10 08:08:44;;;;;;;3.47;2.30;;;;;;;;;;5068694;28;20218;-82
2022/10/10 08:11:20;;;;;;;3.73;2.40;;;;;;;;;;5066052;28;20199;-81
2022/10/10 08:13:51;;;;;;;3.63;2.30;;;;;;;;;;5065854;28;20210;-82
2022/10/10 08:16:21;;;;;;;4.27;2.57;;;;;;;;;;5070324;28;20214;-82
2022/10/10 08:18:50;;;;;;;3.77;2.40;;;;;;;;;;5061571;28;20219;-81
2022/10/10 08:21:19;;;;;;;4.20;2.47;;;;;;;;;;5059969;28;20203;-82
2022/10/10 08:23:48;;;;;;;4.67;2.60;;;;;;;;;;5059205;28;20256;-82
2022/10/10 08:26:18;;;;;;;3.37;2.20;;;;;;;;;;5058149;28;20207;-82
2022/10/10 08:28:48;;;;;;;6.37;2.60;;;;;;;;;;5057158;28;20649;-82
2022/10/10 08:31:19;;;;;;;4.20;2.47;;;;;;;;;;5060055;28;20526;-82
2022/10/10 08:33:48;;;;;;;3.60;2.30;;;;;;;;;;5063388;28;20207;-82
2022/10/10 08:36:18;;;;;;;6.27;2.53;;;;;;;;;;5059523;28;20254;-82
2022/10/10 08:38:47;;;;;;;3.87;2.70;;;;;;;;;;5058513;28;20689;-82
2022/10/10 08:41:32;;;;;;;5.10;2.50;;;;;;;;;;5063872;28;20211;-82
2022/10/10 08:44:03;;;;;;;4.40;2.53;;;;;;;;;;5060298;28;20215;-82
2022/10/10 08:46:36;;;;;;;4.73;2.13;;;;;;;;;;5061539;28;20168;-81
2022/10/10 08:49:12;;;;;;;4.83;2.47;;;;;;;;;;5061929;28;20227;-82
2022/10/10 08:51:42;;;;;;;4.93;2.53;;;;;;;;;;5064812;28;20222;-82
2022/10/10 08:54:14;;;;;;;5.03;2.40;;;;;;;;;;5063324;28;20187;-82
2022/10/10 08:56:43;;;;;;;4.17;2.37;;;;;;;;;;5065318;28;20183;-82
2022/10/10 08:59:15;;;;;;;3.57;2.67;;;;;;;;;;5063657;28;20226;-82
2022/10/10 09:01:46;;;;;;;6.13;2.67;;;;;;;;;;5068410;28;20241;-82
2022/10/10 09:04:34;;;;;;;3.40;2.70;;;;;;;;;;5063671;28;20203;-81
2022/10/10 09:07:11;;;;;;;4.63;2.53;;;;;;;;;;5059046;28;20289;-81
2022/10/10 09:09:44;;;;;;;3.80;2.20;;;;;;;;;;5058239;28;20679;-81
2022/10/10 09:15:21;;;;;;;5.73;2.40;;;;;;;;;;5112588;27;20546;-82
2022/10/10 09:17:56;;;;;;;3.57;2.43;;;;;;;;;;5112061;28;20208;-82
2022/10/10 09:20:40;;;;;;;5.13;2.87;;;;;;;;;;5112218;28;20224;-82
2022/10/10 09:23:13;;;;;;;4.47;2.50;;;;;;;;;;5111765;28;20320;-82
2022/10/10 09:25:44;;;;;;;6.13;2.60;;;;;;;;;;5112049;28;20240;-82
2022/10/10 09:28:15;;;;;;;3.13;2.60;;;;;;;;;;5112261;28;20204;-82
2022/10/10 09:30:46;;;;;;;2.47;2.17;;;;;;;;;;5112188;28;20225;-82
2022/10/10 09:33:24;;;;;;;6.23;2.70;;;;;;;;;;5112657;28;20704;-82
2022/10/10 09:35:54;;;;;;;4.97;2.40;;;;;;;;;;5112015;28;20220;-81
2022/10/10 09:38:31;;;;;;;5.73;2.90;;;;;;;;;;5112208;28;20618;-82
2022/10/10 09:41:00;;;;;;;6.70;2.83;;;;;;;;;;5111428;28;20221;-82
2022/10/10 09:43:31;;;;;;;4.23;2.57;;;;;;;;;;5111815;28;20232;-82
2022/10/10 09:46:01;;;;;;;5.40;2.60;;;;;;;;;;5111045;28;20236;-82
2022/10/10 09:48:32;;;;;;;4.50;2.80;;;;;;;;;;5111145;28;20209;-81
2022/10/10 09:51:01;;;;;;;5.67;2.80;;;;;;;;;;5111163;28;20185;-82
2022/10/10 09:53:30;;;;;;;5.60;2.87;;;;;;;;;;5112014;28;20746;-81
2022/10/10 09:55:59;;;;;;;4.40;2.50;;;;;;;;;;5111723;28;20264;-82
2022/10/10 09:58:30;;;;;;;4.77;2.83;;;;;;;;;;5111328;28;20254;-82
2022/10/10 10:01:15;;;;;;;4.03;2.90;;;;;;;;;;5111520;28;20247;-82
2022/10/10 10:03:44;;;;;;;3.63;2.60;;;;;;;;;;5111246;28;20639;-82
2022/10/10 10:06:14;;;;;;;4.40;2.70;;;;;;;;;;5111327;28;20284;-82
2022/10/10 10:08:43;;;;;;;5.67;3.03;;;;;;;;;;5110631;28;20236;-81
2022/10/10 10:11:26;;;;;;;4.80;3.10;;;;;;;;;;5110559;28;20200;-82
2022/10/10 10:13:55;;;;;;;4.03;2.78;;;;;;;;;;5110854;28;20260;-82
2022/10/10 10:16:32;;;;;;;4.30;2.65;;;;;;;;;;5110981;28;20288;-82
2022/10/10 10:19:01;;;;;;;5.38;3.03;;;;;;;;;;5110872;28;20220;-82
2022/10/10 10:21:29;;;;;;;6.07;3.10;;;;;;;;;;5110874;28;20661;-82
2022/10/10 10:23:59;;;;;;;6.82;3.00;;;;;;;;;;5110911;28;20591;-81
2022/10/10 10:26:30;;;;;;;6.10;3.03;;;;;;;;;;5097988;28;20206;-81
2022/10/10 10:28:58;;;;;;;4.63;3.03;;;;;;;;;;5097106;28;20222;-82
2022/10/10 10:31:45;;;;;;;4.72;3.10;;;;;;;;;;5097024;28;20201;-81
2022/10/10 10:34:27;;;;;;;4.78;3.10;;;;;;;;;;5096751;28;20245;-81
2022/10/10 10:37:00;;;;;;;5.05;3.30;;;;;;;;;;5096801;28;20654;-81
2022/10/10 10:39:34;;;;;;;5.30;3.00;;;;;;;;;;5097476;28;20646;-82
2022/10/10 10:42:06;;;;;;;5.05;3.13;;;;;;;;;;5096625;28;20190;-82
2022/10/10 10:44:39;;;;;;;5.85;3.03;;;;;;;;;;5096532;28;20194;-81
2022/10/10 10:47:13;;;;;;;7.72;3.40;;;;;;;;;;5096826;28;20220;-81
2022/10/10 10:49:47;;;;;;;4.60;3.13;;;;;;;;;;5096087;28;20218;-82
2022/10/10 10:52:20;;;;;;;5.93;3.55;;;;;;;;;;5096210;28;20255;-81
2022/10/10 10:54:59;;;;;;;5.38;3.00;;;;;;;;;;5096631;28;20293;-81
2022/10/10 10:57:31;;;;;;;5.95;3.00;;;;;;;;;;5096485;28;20288;-81
2022/10/10 11:00:19;;;;;;;5.82;2.90;;;;;;;;;;5096372;28;20221;-82
2022/10/10 11:03:16;;;;;;;5.25;3.33;;;;;;;;;;5096303;28;20282;-82
2022/10/10 11:06:13;;;;;;;4.72;2.65;;;;;;;;;;5096600;28;20206;-82
2022/10/10 11:08:50;;;;;;;7.07;3.15;;;;;;;;;;5096265;28;20185;-81
2022/10/10 11:11:30;;;;;;;4.65;2.55;;;;;;;;;;5096164;28;20687;-82
2022/10/10 11:14:01;;;;;;;5.47;3.30;;;;;;;;;;5095966;28;20279;-82
2022/10/10 11:16:31;;;;;;;6.38;2.85;;;;;;;;;;5095980;28;20285;-80
2022/10/10 11:19:22;;;;;;;3.78;2.70;;;;;;;;;;5095745;28;20234;-81
2022/10/10 11:21:54;;;;;;;4.63;2.85;;;;;;;;;;5096656;28;20182;-82
2022/10/10 11:24:33;;;;;;;5.57;2.90;;;;;;;;;;5096431;28;20232;-82
2022/10/10 11:27:04;;;;;;;6.30;3.08;;;;;;;;;;5096141;28;20190;-82
2022/10/10 11:29:34;;;;;;;5.93;2.95;;;;;;;;;;5096022;28;20257;-82
2022/10/10 11:32:05;;;;;;;6.13;2.75;;;;;;;;;;5095880;28;20263;-82
2022/10/10 11:34:39;;;;;;;5.10;2.70;;;;;;;;;;5095647;28;20206;-82
2022/10/10 11:37:12;;;;;;;4.72;2.72;;;;;;;;;;5094387;28;20293;-82
2022/10/10 11:39:44;;;;;;;5.13;2.08;;;;;;;;;;5095309;28;20305;-81
2022/10/10 11:42:15;;;;;;;5.50;2.42;;;;;;;;;;5096066;28;20186;-81
2022/10/10 11:44:46;;;;;;;5.82;2.75;;;;;;;;;;5095375;28;20609;-82
2022/10/10 11:47:17;;;;;;;4.55;2.15;;;;;;;;;;5095363;28;20225;-81
2022/10/10 11:49:47;;;;;;;5.32;2.35;;;;;;;;;;5095367;28;20222;-80
2022/10/10 11:52:21;;;;;;;3.88;2.15;;;;;;;;;;5095054;28;20186;-81
2022/10/10 11:55:04;;;;;;;3.92;2.30;;;;;;;;;;5095266;28;20640;-82
2022/10/10 11:57:36;;;;;;;5.38;2.50;;;;;;;;;;5095001;28;20524;-81
2022/10/10 12:00:06;;;;;;;3.78;2.13;;;;;;;;;;5094736;28;20268;-79
2022/10/10 12:02:36;;;;;;;5.35;2.50;;;;;;;;;;5094960;28;20289;-81
2022/10/10 12:05:05;;;;;;;5.45;2.20;;;;;;;;;;5094596;28;20210;-82
2022/10/10 12:07:40;;;;;;;16.40;3.45;;;;;;;;;;5094903;28;20205;-81
2022/10/10 12:10:10;;;;;;;4.88;2.25;;;;;;;;;;5094821;28;20249;-82
2022/10/10 12:12:40;;;;;;;4.55;2.58;;;;;;;;;;5094999;28;20597;-79
2022/10/10 12:15:10;;;;;;;5.35;2.40;;;;;;;;;;5094189;28;20643;-81
2022/10/10 12:17:41;;;;;;;3.95;2.30;;;;;;;;;;5094495;28;20232;-82
2022/10/10 12:20:10;;;;;;;4.55;2.45;;;;;;;;;;5094783;28;20222;-80
2022/10/10 12:22:40;;;;;;;7.03;2.63;;;;;;;;;;5094068;28;20255;-81
2022/10/10 12:25:22;;;;;;;3.60;2.05;;;;;;;;;;5094092;28;20244;-82
2022/10/10 12:28:04;;;;;;;3.40;2.47;;;;;;;;;;5094359;28;20194;-82
2022/10/10 12:30:33;;;;;;;10.23;3.20;;;;;;;;;;5094401;28;20221;-82
2022/10/10 12:33:02;;;;;;;4.82;2.17;;;;;;;;;;5094266;28;20240;-82
2022/10/10 12:35:32;;;;;;;5.03;2.33;;;;;;;;;;5094589;28;20648;-81
2022/10/10 12:38:16;;;;;;;4.47;2.28;;;;;;;;;;5094453;28;20216;-82
2022/10/10 12:41:03;;;;;;;4.53;2.28;;;;;;;;;;5094706;28;20243;-83
2022/10/10 12:43:38;;;;;;;4.72;2.42;;;;;;;;;;5094540;28;20202;-82
2022/10/10 12:46:25;;;;;;;9.45;2.53;;;;;;;;;;5094327;28;20230;-82
2022/10/10 12:49:05;;;;;;;5.80;2.35;;;;;;;;;;5094536;28;20633;-82
2022/10/10 12:51:35;;;;;;;3.88;2.55;;;;;;;;;;5093731;28;20273;-80
2022/10/10 12:54:07;;;;;;;3.72;2.13;;;;;;;;;;5094237;28;20288;-82
2022/10/10 12:56:37;;;;;;;5.38;2.45;;;;;;;;;;5094146;28;20205;-82
2022/10/10 12:59:07;;;;;;;4.20;2.22;;;;;;;;;;5094566;28;20249;-82
2022/10/10 13:01:37;;;;;;;4.28;2.33;;;;;;;;;;5094520;28;20240;-83
2022/10/10 13:04:06;;;;;;;6.68;2.40;;;;;;;;;;5094088;28;20212;-81
2022/10/10 13:06:38;;;;;;;5.97;2.63;;;;;;;;;;5093752;28;20241;-81
2022/10/10 13:09:11;;;;;;;4.20;2.60;;;;;;;;;;5093489;28;20217;-81
2022/10/10 13:11:52;;;;;;;5.95;2.47;;;;;;;;;;5092932;28;20292;-81
2022/10/10 13:14:21;;;;;;;4.05;2.58;;;;;;;;;;5092748;28;20300;-81
2022/10/10 13:16:50;;;;;;;4.10;2.50;;;;;;;;;;5094141;28;20276;-82
2022/10/10 13:19:20;;;;;;;5.60;2.72;;;;;;;;;;5094073;28;20221;-80
2022/10/10 13:21:50;;;;;;;4.25;2.30;;;;;;;;;;5093856;28;20186;-82
2022/10/10 13:24:21;;;;;;;5.25;2.45;;;;;;;;;;5093278;28;20255;-81
2022/10/10 13:26:51;;;;;;;4.60;2.53;;;;;;;;;;5093463;28;20233;-81
2022/10/10 13:29:24;;;;;;;5.22;2.65;;;;;;;;;;5093258;28;20305;-82
2022/10/10 13:31:54;;;;;;;4.13;2.40;;;;;;;;;;5093403;28;20197;-81
2022/10/10 13:34:24;;;;;;;5.13;2.10;;;;;;;;;;5092587;28;20194;-82
2022/10/10 13:36:56;;;;;;;11.63;3.55;;;;;;;;;;5093202;28;20303;-81
2022/10/10 13:39:27;;;;;;;6.90;2.35;;;;;;;;;;5092642;28;20222;-82
2022/10/10 13:41:56;;;;;;;5.18;2.40;;;;;;;;;;5093959;28;20255;-81
2022/10/10 13:44:26;;;;;;;4.20;2.55;;;;;;;;;;5093192;28;20297;-81
2022/10/10 13:46:55;;;;;;;5.45;2.30;;;;;;;;;;5093545;28;20243;-82
2022/10/10 13:49:25;;;;;;;5.45;2.30;;;;;;;;;;5093775;28;20264;-82
2022/10/10 13:52:04;;;;;;;5.60;2.50;;;;;;;;;;5092984;28;20629;-81
2022/10/10 13:54:46;;;;;;;6.65;2.30;;;;;;;;;;5093203;28;20205;-82
2022/10/10 13:57:17;;;;;;;4.60;2.40;;;;;;;;;;5092569;28;20295;-82
2022/10/10 13:59:46;;;;;;;6.03;2.65;;;;;;;;;;5092349;28;20717;-81
2022/10/10 14:02:17;;;;;;;6.07;2.40;;;;;;;;;;5097190;28;20202;-82
2022/10/10 14:04:48;;;;;;;7.93;2.40;;;;;;;;;;5096533;28;20692;-80
2022/10/10 14:07:20;;;;;;;8.55;2.40;;;;;;;;;;5096610;28;20588;-81
2022/10/10 14:09:54;;;;;;;7.03;2.50;;;;;;;;;;5096842;28;20258;-82
2022/10/10 14:12:26;;;;;;;3.40;2.20;;;;;;;;;;5097376;28;20698;-81
2022/10/10 14:14:56;;;;;;;7.93;2.65;;;;;;;;;;5097407;28;20209;-82
2022/10/10 14:17:25;;;;;;;4.47;2.53;;;;;;;;;;5098260;28;20222;-82
2022/10/10 14:19:54;;;;;;;6.10;2.80;;;;;;;;;;5097125;28;20222;-82
2022/10/10 14:22:23;;;;;;;4.50;2.50;;;;;;;;;;5097461;28;20210;-83
2022/10/10 14:24:53;;;;;;;3.65;2.22;;;;;;;;;;5097580;28;20303;-82
2022/10/10 14:27:25;;;;;;;5.55;2.35;;;;;;;;;;5097637;28;20285;-82
2022/10/10 14:29:54;;;;;;;6.00;2.47;;;;;;;;;;5097130;28;20222;-82
2022/10/10 14:32:23;;;;;;;7.30;2.38;;;;;;;;;;5098285;28;20213;-82
2022/10/10 14:34:51;;;;;;;5.72;2.50;;;;;;;;;;5097309;28;20230;-82
2022/10/10 14:37:21;;;;;;;3.38;2.35;;;;;;;;;;5096738;28;20649;-82
2022/10/10 14:39:50;;;;;;;7.57;2.40;;;;;;;;;;5097318;28;20210;-82
2022/10/10 14:42:21;;;;;;;7.43;2.55;;;;;;;;;;5097298;28;20201;-82
2022/10/10 14:44:49;;;;;;;4.82;2.25;;;;;;;;;;5097376;28;20708;-82
2022/10/10 14:47:19;;;;;;;5.32;2.42;;;;;;;;;;5097769;28;20198;-82
2022/10/10 14:49:47;;;;;;;4.63;2.42;;;;;;;;;;5096640;28;20279;-82
2022/10/10 14:52:16;;;;;;;5.88;2.63;;;;;;;;;;5097585;28;20225;-82
2022/10/10 14:54:45;;;;;;;6.82;2.70;;;;;;;;;;5096704;28;20262;-82
2022/10/10 14:57:14;;;;;;;7.32;2.58;;;;;;;;;;5096260;28;20245;-82
2022/10/10 14:59:44;;;;;;;3.85;2.30;;;;;;;;;;5097005;28;20225;-82
2022/10/10 15:02:18;;;;;;;7.43;2.38;;;;;;;;;;5096608;28;20204;-82
2022/10/10 15:04:46;;;;;;;6.43;2.30;;;;;;;;;;5097108;28;20194;-81
2022/10/10 15:07:15;;;;;;;3.00;2.10;;;;;;;;;;5096494;28;20272;-82
2022/10/10 15:09:44;;;;;;;4.80;2.25;;;;;;;;;;5096623;28;20232;-82